Terminal Aerodrome Forecast
Issued by NWS Jackson, MS

Home | Current Version | Previous Version | Text Only | Print | Product List | Glossary On
Versions: 1 2 3 4 5 6 7 8 9 10 11 12 13
000
FTUS44 KMEG 231729 CCA
TAFTUP
TAF COR
KTUP 231729Z 2318/2418 36009KT P6SM VCSH BKN040 BKN250
     FM232200 04010KT P6SM SCT045 BKN250
     FM240100 03006KT P6SM FEW250
      TEMPO 2410/2412 5SM BR
     FM241500 06009KT P6SM SKC=

USA.gov is the U.S. government's official web portal to all federal, state and local government web resources and services.